»·PEaware :: N580DC KDTA-KSLC

N580DC :: KDTA-KSLC

FLIGHT INFORMATION

Flight Status: Arrived
Operator: Privately registered:
United States
More flights under this callsign
Pilot: Raphael S. (13144)
Aircraft: BEECH AIRCRAFT BARON
(BE58)
More flights by this aircraft type
Origin: KDTA Delta Mun
United States
Destination: KSLC Salt Lake City Intl
United States
More flights between these airports :: More routes between these airports
Route: FFU
File this flight plan on PilotEdge
Remarks:
Altitude:
(Current/Filed)
11,000ft
Speed:
(Current/Filed)
190kts
Departed: 30-Oct-18 04:52 PM
Arrived: 30-Oct-18 05:29 PM
Distance/Time
Traveled:
87nm/0:36
Distance/Time
To Go:
Arrived

Flight Plot

Page will automatically refresh every two minutes.


Map Options




Map Legend


Flown Route
Filed Route
Departure Airport
Arrival Airport
Navaid (VOR, NDB)
Fix

Horizontal Profiles

Position Reports

Time Latitude Longitude Heading Altitude Ground
Speed
30-Oct-18 16:37 39.385552 -112.511934 226 4759ft 0kts
30-Oct-18 16:38 39.385552 -112.511934 226 4759ft 0kts
30-Oct-18 16:39 39.385552 -112.511934 226 4759ft 0kts
30-Oct-18 16:40 39.385552 -112.511934 226 4759ft 0kts
30-Oct-18 16:41 39.385552 -112.511934 226 4759ft 0kts
30-Oct-18 16:42 39.385552 -112.511934 226 4759ft 0kts
30-Oct-18 16:43 39.385552 -112.511934 226 4759ft 0kts
30-Oct-18 16:44 39.385552 -112.511934 226 4759ft 0kts
30-Oct-18 16:45 39.385552 -112.511934 226 4759ft 0kts
30-Oct-18 16:46 39.385552 -112.511934 226 4759ft 0kts
30-Oct-18 16:47 39.385552 -112.511934 226 4759ft 0kts
30-Oct-18 16:48 39.385552 -112.511934 226 4759ft 0kts
30-Oct-18 16:49 39.384698 -112.511695 133 4759ft 10kts
30-Oct-18 16:50 39.383499 -112.512115 225 4759ft 10kts
30-Oct-18 16:51 39.380516 -112.509724 134 4759ft 18kts
30-Oct-18 16:52 39.376177 -112.504185 136 4755ft 25kts
30-Oct-18 16:53 39.374961 -112.502199 352 4749ft 2kts
30-Oct-18 16:54 39.387883 -112.501783 2 4928ft 99kts
30-Oct-18 16:55 39.416321 -112.487971 34 5864ft 125kts
30-Oct-18 16:56 39.443520 -112.460668 33 6793ft 130kts
30-Oct-18 16:57 39.474712 -112.438862 20 7670ft 128kts
30-Oct-18 16:58 39.508360 -112.419156 19 8373ft 135kts
30-Oct-18 16:59 39.543520 -112.401976 16 9066ft 135kts
30-Oct-18 17:00 39.579183 -112.384676 21 9664ft 138kts
30-Oct-18 17:01 39.612503 -112.360566 18 10274ft 135kts
30-Oct-18 17:02 39.646652 -112.341905 26 10860ft 139kts
30-Oct-18 17:03 39.681995 -112.314585 25 10943ft 156kts
30-Oct-18 17:04 39.721195 -112.287140 23 10923ft 163kts
30-Oct-18 17:05 39.762913 -112.263051 23 10907ft 163kts
30-Oct-18 17:06 39.803881 -112.236224 26 10844ft 166kts
30-Oct-18 17:07 39.844615 -112.211321 28 10925ft 163kts
30-Oct-18 17:08 39.885072 -112.186082 25 10989ft 162kts
30-Oct-18 17:09 39.925717 -112.160273 24 11021ft 162kts
30-Oct-18 17:10 39.966051 -112.134556 26 11050ft 162kts
30-Oct-18 17:11 40.006897 -112.110857 22 11058ft 162kts
30-Oct-18 17:12 40.047556 -112.085486 23 11062ft 162kts
30-Oct-18 17:13 40.087965 -112.059493 27 11061ft 163kts
30-Oct-18 17:14 40.127864 -112.032356 24 11092ft 162kts
30-Oct-18 17:15 40.169359 -112.006256 22 10950ft 169kts
30-Oct-18 17:16 40.211604 -111.980837 23 10903ft 167kts
30-Oct-18 17:17 40.253690 -111.951488 28 10042ft 178kts
30-Oct-18 17:18 40.297967 -111.931767 358 9304ft 168kts
30-Oct-18 17:19 40.343824 -111.934827 359 9004ft 161kts
30-Oct-18 17:20 40.387856 -111.939711 356 8382ft 158kts
30-Oct-18 17:21 40.433038 -111.944597 355 7937ft 166kts
30-Oct-18 17:22 40.478607 -111.947859 356 8077ft 165kts
30-Oct-18 17:23 40.523964 -111.952306 354 7801ft 166kts
30-Oct-18 17:24 40.568159 -111.957491 355 7017ft 142kts
30-Oct-18 17:25 40.605378 -111.961375 355 6757ft 133kts
30-Oct-18 17:26 40.643238 -111.963319 358 6744ft 137kts
30-Oct-18 17:27 40.678862 -111.960758 357 6196ft 122kts
30-Oct-18 17:28 40.709775 -111.961881 356 5569ft 109kts
30-Oct-18 17:29 40.739490 -111.962087 356 4960ft 104kts
30-Oct-18 17:30 40.768653 -111.962006 356 4381ft 104kts
30-Oct-18 17:31 40.782407 -111.960214 87 4228ft 0kts
30-Oct-18 17:32 40.781846 -111.959114 199 4228ft 10kts
30-Oct-18 17:33 40.778326 -111.958492 87 4228ft 12kts
30-Oct-18 17:34 40.778940 -111.958183 267 4228ft 0kts

Navigation Log

Ident Type
Flight plan parsing failed, navigation log unavailable